2018 Ballard Cup Series III
7/9/2018

Sloop Tavern Yacht Club


PRELIMINARY

Committee Boat - Eclipse

Race 2


R1 R2 R3 R4 R5 Series Overall

Class: 1 NFS - Start: 18:15:00 - Course: NMBN - Distance: 3.203      

Boat Name SailNo Boat Type Skipper Rating Club Start Finish Elapsed Corrected BCE Notes Place OA
Astraea 6560 Star Kirsten Bergstrom 153 STYC 18:15:00 19:04:13 0:49:13 0:41:03 0:00:00 Non-Flying 1 1
Anarchy 11 FT 10 Tom Ward 72 STYC 18:15:00 19:01:15 0:46:15 0:42:24 0:01:21 Non-Flying 2 2
Billabong 4200 Lancer 36 Ben Lobaugh 147 STYC 18:15:00 19:17:26 1:02:26 0:54:35 0:13:32 Non-Flying 3 37
Amoretto 79104 Jeanneau Martin Bower 204 STYC 18:15:00 19:21:36 1:06:36 0:55:43 0:14:40 Non-Flying 4 39
Blue Lullaby 391 Newport 28 John H Endresen 231 STYC 18:15:00 DNC Non-Flying 6 51
Figaro 7784 Ericson 39 Pete Serafin 159 STYC 18:15:00 DNC Non-Flying 6 51
Frog Prints 79070 Dufour 34 Tim Onders 192 STYC 18:15:00 DNC Non-Flying 6 51
Kittiwake B30 Islander Bahama 20 mike mcguane 216 STYC 18:15:00 DNC Non-Flying 6 51

Class: 2 FS - Start: 18:20:00 - Course: NMBN - Distance: 3.203      

Boat Name SailNo Boat Type Skipper Rating Club Start Finish Elapsed Corrected BCE Notes Place OA
Rock Lobster 59306 San Juan 7.7 Trent Piepho 210 STYC 18:20:00 19:16:35 0:56:35 0:45:22 0:00:00 Flying 1 11
Lady Too 59382 San Jaun 28 Damon Darley 201 STYC 18:20:00 19:20:52 1:00:52 0:50:08 0:04:46 Flying 2 24
Water Street 1376 Cal 2-24 Mark Jackson 252 STYC 18:20:00 19:28:52 1:08:52 0:55:25 0:10:03 Flying 3 38
Miss Mayhem 422 San Juan 24 Melissa Davies 228 STYC 18:20:00 19:32:07 1:12:07 0:59:57 0:14:35 Flying 4 47
Aquavit 3242 Interational Folkboat David Sinson 285 STYC 18:20:00 DNF Flying 5 50
Wavelength 49922 ranger 29 Eric Dunkel 198 STYC 18:20:00 DNC Flying 6 51

Class: 3 FS - Start: 18:25:00 - Course: NMBN - Distance: 3.203      

Boat Name SailNo Boat Type Skipper Rating Club Start Finish Elapsed Corrected BCE Notes Place OA
Zap 59269 Zap 26 Don Sarin 147 STYC 18:25:00 19:18:01 0:53:01 0:45:10 0:00:00 1 10
shazam 42269 Santa Cruz 27 bob tollenaar 156 STYC 18:25:00 19:18:51 0:53:51 0:45:31 0:00:21 Flying 2 13
Sputnik 132 Moore 24 Jacob Kennedy 168 STYC 18:25:00 19:23:46 0:58:46 0:49:48 0:04:38 Flying 3 22
Perfectly Strange 87210 POCK22-1 Paul Kalina 174 STYC 18:25:00 19:24:06 0:59:06 0:49:49 0:04:39 Flying 4 23
More Uff Da 26 Moore 24 Ben Braden 168 STYC 18:25:00 DNC Flying 6 51
Morphine 72 Moore 24 Nick Farley 168 STYC 18:25:00 DNC Flying 6 51
The Banana Stand 104 Santa Cruz 27 Adam Yuret 162 STYC 18:25:00 DNC Flying 6 51
Three Ring Circus 37 Olson 25 Nate Creitz 174 STYC 18:25:00 DNC Flying 6 51

Class: 4 FS - Start: 18:30:00 - Course: NMBN - Distance: 3.203      

Boat Name SailNo Boat Type Skipper Rating Club Start Finish Elapsed Corrected BCE Notes Place OA
Kowloon 17 Olson 911 Ken Chin 129 STYC 18:30:00 19:20:03 0:50:03 0:43:10 0:00:00 Flying 1 3
Elixer 29 Aphro 101 Megahn K 150 STYC 18:30:00 19:21:49 0:51:49 0:43:49 0:00:39 Flying 2 5
Outlaw 77108 J/30 Cindy Gossett 138 STYC 18:30:00 19:21:47 0:51:47 0:44:25 0:01:15 Flying 3 8
Celtic Breeze 233 Ericson 35 MK3 Glenn Knitter 159 STYC 18:30:00 19:26:06 0:56:06 0:47:37 0:04:27 Flying 4 18
Airloom 69410 Baba 40 Tim Morgenroth 168 STYC 18:30:00 19:29:45 0:59:45 0:50:47 0:07:37 Flying 5 29
Grayling 7 Q-class Duke 144 STYC 18:30:00 19:30:51 1:00:51 0:53:10 0:10:00 Flying 6 34
Kamoon NA Beneteau Michael Taft 163 STYC 18:30:00 19:35:45 1:05:45 0:57:03 0:13:53 Flying 7 42
Sea Haven 930 Catalina 34 Cary K 147 STYC 18:30:00 19:39:28 1:09:28 1:01:37 0:18:27 Flying 8 48
Sea Trek II 69326 Catalina 34 Tom Madden 171 SBYC 18:30:00 DNC Flying 10 51
Velella 150 Wylie 31 Ryan Helling 165 STYC 18:30:00 DNC Flying 10 51

Class: 5 FS - Start: 18:35:00 - Course: NMBN - Distance: 3.203      

Boat Name SailNo Boat Type Skipper Rating Club Start Finish Elapsed Corrected BCE Notes Place OA
Crazy Ivan 151 J/80 Taylor Joosten 129 STYC 18:35:00 19:29:28 0:54:28 0:47:35 0:00:00 Flying 1 17
Taj Majall 45 J/80 Jacob Kemp 129 SSC 18:35:00 19:32:06 0:57:06 0:50:13 0:02:38 Flying 2 25
Jolly Green 1 J/80 Mike Poole 129 SSC 18:35:00 19:32:22 0:57:22 0:50:29 0:02:54 Flying 3 27.5
Stellar J 546 J/80 Dunes Wijayratne 129 SSC 18:35:00 19:34:32 0:59:32 0:52:39 0:05:04 Flying 4 32
Namaste 11 J/80 Seattle Sailing Club 129 SSC 18:35:00 19:36:03 1:01:03 0:54:10 0:06:35 Flying 5 36
Rush 988 J/80 John Lueders 129 SSC 18:35:00 19:37:41 1:02:41 0:55:48 0:08:13 Flying 6 41
Underdog 85 J/80 Andreas Wieberneit 129 SSC 18:35:00 19:39:06 1:04:06 0:57:13 0:09:38 Flying 7 44
No Name #15 J/80 Seattle Sailing Club 129 SSC 18:35:00 19:39:35 1:04:35 0:57:42 0:10:07 Flying 8 46
UpRoar 41 J/80 Morris Lowitz 129 STYC 18:35:00 DNC Flying 10 51
Reckless 296 J/80 Sezer Emre 129 STYC 18:35:00 CB Flying 10 51

Class: 6 FS - Start: 18:40:00 - Course: NMBN - Distance: 3.203      

Boat Name SailNo Boat Type Skipper Rating Club Start Finish Elapsed Corrected BCE Notes Place OA
Different Drummer 52804 Wauqueiz Centurion 40s Charles Hill 81 STYC 18:40:00 19:28:49 0:48:49 0:44:30 0:00:00 Flying 1 9
Wings 244 J/29 Jim Moynihan 120 STYC 18:40:00 19:31:48 0:51:48 0:45:24 0:00:54 Flying 2 12
Muffin 18660 Santa Cruz33 Garry Greth 117 STYC 18:40:00 19:31:51 0:51:51 0:45:36 0:01:06 Flying 3 14
Poisson Soluble 69351 Hobie 33 Robert Horsley 96 STYC 18:40:00 19:31:01 0:51:01 0:45:54 0:01:24 Flying 4 15
Wildflower 69264 J 35C Steve Kirsch 96 STYC 18:40:00 19:35:24 0:55:24 0:50:17 0:05:47 Flying 5 26
Latitude 60680 Jeanneau 409 Bill Gibson 93 STYC 18:40:00 19:37:43 0:57:43 0:52:45 0:08:15 Flying 6 33
Helios 33 Beneteau First 36.7 David James 81 STYC 18:40:00 19:41:42 1:01:42 0:57:23 0:12:53 Flying 7 45
Slow Loris 12345 Choate 40 Duncan Smith 96 STYC 18:40:00 DNC Flying 9 51

Class: 7 FS - Start: 18:45:00 - Course: NMBN - Distance: 3.203      

Boat Name SailNo Boat Type Skipper Rating Club Start Finish Elapsed Corrected BCE Notes Place OA
Last Tango 212 J/105 Jim Geros 93 STYC 18:45:00 19:34:15 0:49:15 0:44:17 0:00:00 Flying 1 7
Liftoff 621 J/105 Philippe LE MOUEL 93 STYC 18:45:00 19:39:29 0:54:29 0:49:31 0:05:14 Flying 2 21
Corvo 105 475 J/105 Tom Kerr 93 STYC 18:45:00 19:40:27 0:55:27 0:50:29 0:06:12 Flying 3 27.5
Puff 115 J/105 Tamara Jacobs 93 SSC 18:45:00 19:41:41 0:56:41 0:51:43 0:07:26 Flying 4 31
Avalanche 495 J/105 Jeremy Boynes 93 STYC 18:45:00 19:43:09 0:58:09 0:53:11 0:08:54 Flying 5 35
Paladin 412 J/105 Dean Willard 93 STYC 18:45:00 19:47:03 1:02:03 0:57:05 0:12:48 Flying 6 43
Cyrano 253 J/105 Seattle Sailing Club 93 SSC 18:45:00 19:54:15 1:09:15 1:04:17 0:20:00 Flying 7 49

Class: 8 FS - Start: 18:50:00 - Course: NMBN - Distance: 3.203      

Boat Name SailNo Boat Type Skipper Rating Club Start Finish Elapsed Corrected BCE Notes Place OA
Eclipse 256 J/109 Fraser 69 STYC 18:50:00 19:37:26 0:47:26 0:43:45 0:00:00 Flying 1 4
Bat Out Of Hell USA55 Farr 30 Lance Staughton 54 STYC 18:50:00 19:37:05 0:47:05 0:44:12 0:00:27 Flying 2 6
Freja USA 2 Aerodyne Jonathan Cruse 18 STYC 18:50:00 19:38:25 0:48:25 0:47:27 0:03:42 Flying 3 16
Those Guys 18155 J/35 Jenny Heins 72 STYC 18:50:00 19:42:08 0:52:08 0:48:17 0:04:32 Flying 4 19
re-Quest 18266 Express 37 Alex Wetmore & Kerry Billingham 72 STYC 18:50:00 19:42:58 0:52:58 0:49:07 0:05:22 Flying 5 20
FREDA MAE 790030 CORSAIR 31r VINCENT DEPILLIS -6 nwma 18:50:00 19:40:40 0:50:40 0:50:58 0:07:13 Multihull Flying 6 30
ESCAPE 69160 Corsair F-27 Yury Palatnik 79 STYC/NWMA 18:50:00 19:49:58 0:59:58 0:55:45 0:12:00 Multihull Flying 7 40
Nefarious USA 53 Farr 30 Daniel Randolph 54 STYC 18:50:00 DNC Flying 9 51
Project Mayhem USA 64 Farr 30 Grady Morgan 54 CYC 18:50:00 DNC Flying 9 51

STYC scoring (20180405_224030 ver)